Time;durP1;ratioP1;P1;durP2;ratioP2;P2;SDS_P1;SDS_P2;PMS_P1;PMS_P2;Temp;Humidity;BMP_temperature;BMP_pressure;BME280_temperature;BME280_humidity;BME280_pressure;Samples;Min_cycle;Max_cycle;Signal;HPM_P1;HPM_P2
2024/01/19 00:02:17;;;;;;;1.60;1.50;;;;;;;13.08;48.93;96053.46;105643;1257;65377;-38
2024/01/19 00:05:48;;;;;;;1.70;1.40;;;;;;;13.08;49.01;96051.64;105627;1254;72511;-38
2024/01/19 00:08:47;;;;;;;1.80;1.50;;;;;;;13.09;48.99;96056.79;105263;1254;62067;-39
2024/01/19 00:16:51;;;;;;;1.90;1.50;;;;;;;13.08;49.02;96083.49;105563;1257;76841;-38
2024/01/19 00:24:54;;;;;;;1.80;1.30;;;;;;;13.08;48.93;96095.79;105431;1259;71501;-39
2024/01/19 00:27:20;;;;;;;1.60;1.40;;;;;;;13.08;49.03;96099.15;105555;1258;61950;-39
2024/01/19 00:34:55;;;;;;;1.60;1.50;;;;;;;13.08;48.97;96138.56;105713;1254;75486;-38
2024/01/19 00:37:54;;;;;;;1.50;1.30;;;;;;;13.09;48.98;96149.40;105704;1257;66176;-38
2024/01/19 00:41:26;;;;;;;1.80;1.40;;;;;;;13.08;48.88;96158.77;105447;1253;72592;-38
2024/01/19 00:44:26;;;;;;;1.40;1.20;;;;;;;13.09;49.02;96172.99;105423;1260;62059;-39
2024/01/19 00:46:53;;;;;;;1.60;1.50;;;;;;;13.09;49.13;96192.27;105682;1254;62134;-39
2024/01/19 01:00:04;;;;;;;1.40;1.20;;;;;;;13.09;49.08;96233.35;105608;1254;72502;-38
2024/01/19 01:07:39;;;;;;;1.90;1.50;;;;;;;13.09;48.98;96250.70;105692;1254;62127;-38
2024/01/19 01:11:12;;;;;;;1.40;1.30;;;;;;;13.09;49.07;96255.01;105681;1255;73150;-38
2024/01/19 01:41:48;;;;;;;1.40;1.30;;;;;;;13.07;48.98;96306.42;105556;1255;62090;-38
2024/01/19 01:44:15;;;;;;;1.70;1.30;;;;;;;13.07;49.00;96315.40;105400;1254;62105;-38
2024/01/19 01:46:42;;;;;;;1.60;1.30;;;;;;;13.07;49.03;96319.68;106036;1255;75420;-37
2024/01/19 02:34:17;;;;;;;1.60;1.30;;;;;;;13.09;49.05;96439.91;105613;1256;62067;-38
2024/01/19 02:42:21;;;;;;;1.40;1.20;;;;;;;13.10;49.02;96465.98;105613;1254;67521;-38
2024/01/19 02:45:20;;;;;;;1.50;1.40;;;;;;;13.10;48.94;96472.05;105589;1254;72695;-38
2024/01/19 02:47:46;;;;;;;1.70;1.40;;;;;;;13.10;48.98;96480.20;105607;1258;62102;-39
2024/01/19 02:50:13;;;;;;;1.20;1.10;;;;;;;13.11;48.86;96486.58;105346;1259;62176;-40
2024/01/19 02:52:40;;;;;;;1.70;1.30;;;;;;;13.11;48.90;96488.45;105379;1259;75288;-38
2024/01/19 02:55:11;;;;;;;1.70;1.50;;;;;;;13.11;48.99;96493.22;105600;1254;66227;-38
2024/01/19 02:58:03;;;;;;;1.50;1.20;;;;;;;13.12;49.01;96499.52;105645;1254;72612;-38
2024/01/19 03:01:39;;;;;;;1.30;1.20;;;;;;;13.12;48.95;96503.91;105470;1259;62035;-37
2024/01/19 03:15:22;;;;;;;1.30;1.20;;;;;;;13.12;48.84;96534.70;105657;1256;67704;-39
2024/01/19 03:23:07;;;;;;;1.80;1.10;;;;;;;13.12;48.92;96545.45;105395;1254;62054;-38
2024/01/19 03:35:31;;;;;;;1.70;1.20;;;;;;;13.10;48.97;96565.67;105616;1258;64990;-38
2024/01/19 04:22:48;;;;;;;1.90;1.50;;;;;;;13.10;48.87;96719.60;105472;1254;77007;-38
2024/01/19 04:29:48;;;;;;;1.50;1.30;;;;;;;13.11;48.90;96735.45;105593;1254;73152;-38
2024/01/19 04:32:16;;;;;;;1.50;1.30;;;;;;;13.11;48.94;96742.97;105692;1258;62042;-39
2024/01/19 04:35:15;;;;;;;1.70;1.50;;;;;;;13.11;48.83;96748.74;105670;1254;62150;-37
2024/01/19 04:38:14;;;;;;;1.40;1.30;;;;;;;13.12;48.84;96755.45;105674;1254;75311;-38
2024/01/19 04:40:41;;;;;;;1.60;1.40;;;;;;;13.12;48.97;96764.35;105674;1257;63835;-38
2024/01/19 04:43:40;;;;;;;1.50;1.40;;;;;;;13.12;48.97;96770.58;105678;1254;72393;-37
2024/01/19 04:46:39;;;;;;;1.60;1.50;;;;;;;13.13;48.96;96772.44;105557;1259;62070;-37
2024/01/19 04:50:02;;;;;;;1.50;1.40;;;;;;;13.13;48.91;96785.89;105403;1256;62061;-38
2024/01/19 04:53:01;;;;;;;1.50;1.40;;;;;;;13.13;48.87;96788.80;105509;1256;75915;-38
2024/01/19 05:05:42;;;;;;;1.50;1.40;;;;;;;13.12;48.96;96816.13;105677;1257;62042;-38
2024/01/19 05:08:09;;;;;;;1.50;1.30;;;;;;;13.12;48.86;96822.58;105475;1254;62156;-38
2024/01/19 05:11:13;;;;;;;1.60;1.30;;;;;;;13.13;48.79;96830.29;105489;1254;75148;-38
2024/01/19 05:26:37;;;;;;;;;;;;;;;;;;;;;
2024/01/19 05:30:04;;;;;;;1.40;1.30;;;;;;;13.11;49.03;96886.00;105199;1260;62210;-38
2024/01/19 05:32:31;;;;;;;3.20;1.50;;;;;;;13.12;48.83;96895.08;105471;1260;75277;-38
2024/01/19 05:34:58;;;;;;;1.50;1.40;;;;;;;13.12;48.83;96897.60;105191;1260;66258;-38
2024/01/19 05:43:18;;;;;;;1.70;1.50;;;;;;;13.13;48.80;96907.46;105238;1257;62149;-39
2024/01/19 05:46:17;;;;;;;1.50;1.40;;;;;;;13.13;48.85;96898.95;105568;1254;62039;-38
2024/01/19 05:54:55;;;;;;;1.50;1.40;;;;;;;13.12;48.81;96924.05;105562;1255;67643;-37
2024/01/19 05:57:22;;;;;;;1.40;1.10;;;;;;;13.12;48.91;96936.09;105459;1259;72601;-38
2024/01/19 06:09:59;;;;;;;1.60;1.40;;;;;;;13.12;48.83;96981.18;105600;1256;76908;-38
2024/01/19 06:12:26;;;;;;;1.40;1.30;;;;;;;13.11;48.84;96991.61;105445;1255;66618;-37
2024/01/19 06:15:26;;;;;;;1.40;1.20;;;;;;;13.11;48.83;97001.45;105554;1254;72395;-38
2024/01/19 06:18:58;;;;;;;1.50;1.20;;;;;;;13.12;48.86;97014.44;105590;1258;62152;-39
2024/01/19 06:26:59;;;;;;;1.30;1.10;;;;;;;13.12;48.86;97049.32;105586;1254;76865;-38
2024/01/19 06:29:58;;;;;;;1.50;1.40;;;;;;;13.12;48.94;97050.62;105613;1255;66215;-38
2024/01/19 06:32:57;;;;;;;1.40;1.30;;;;;;;13.12;48.85;97055.92;105412;1254;73376;-38
2024/01/19 06:39:58;;;;;;;1.60;1.40;;;;;;;13.13;48.96;97078.77;105483;1254;62052;-39
2024/01/19 06:42:57;;;;;;;1.30;1.20;;;;;;;13.13;48.95;97080.22;105430;1254;74144;-39
2024/01/19 06:45:27;;;;;;;1.30;1.20;;;;;;;13.13;48.91;97082.02;105443;1255;66691;-40
2024/01/19 06:48:26;;;;;;;1.90;1.30;;;;;;;13.13;48.81;97081.02;105492;1254;72392;-39
2024/01/19 06:50:53;;;;;;;1.90;1.30;;;;;;;13.14;48.81;97077.44;105386;1258;63744;-38
2024/01/19 06:53:20;;;;;;;1.10;1.00;;;;;;;13.14;48.89;97083.67;105587;1256;62039;-38
2024/01/19 06:55:46;;;;;;;1.50;1.20;;;;;;;13.15;48.90;97096.13;105464;1258;74312;-38
2024/01/19 06:58:13;;;;;;;1.70;1.40;;;;;;;13.15;48.96;97098.68;105427;1258;66117;-38
2024/01/19 07:01:12;;;;;;;1.60;1.50;;;;;;;13.15;48.80;97095.84;105550;1254;73457;-39
2024/01/19 07:04:11;;;;;;;1.70;1.50;;;;;;;13.16;48.95;97095.19;105518;1258;62039;-38
2024/01/19 07:11:11;;;;;;;1.40;1.20;;;;;;;13.16;48.76;97106.94;105450;1258;76494;-38
2024/01/19 07:13:38;;;;;;;1.40;1.30;;;;;;;13.16;48.89;97114.08;105445;1254;66077;-37
2024/01/19 07:16:07;;;;;;;2.10;1.50;;;;;;;13.17;48.85;97117.02;105568;1255;72489;-39
2024/01/19 07:18:36;;;;;;;3.20;1.60;;;;;;;13.17;48.90;97111.34;105455;1258;62050;-37
2024/01/19 07:21:36;;;;;;;2.30;1.70;;;;;;;13.17;48.84;97113.02;105573;1258;62080;-39
2024/01/19 07:24:05;;;;;;;1.60;1.50;;;;;;;13.18;48.68;97117.83;105642;1254;74422;-38
2024/01/19 07:26:34;;;;;;;1.40;1.20;;;;;;;13.18;48.78;97116.69;105495;1254;67329;-38
2024/01/19 07:29:04;;;;;;;1.40;1.20;;;;;;;13.19;48.81;97111.79;105406;1254;73341;-38
2024/01/19 07:31:31;;;;;;;1.40;1.30;;;;;;;13.19;48.85;97116.27;105437;1259;62107;-38
2024/01/19 07:34:02;;;;;;;1.80;1.70;;;;;;;13.20;48.82;97120.98;105619;1256;62040;-37
2024/01/19 07:36:33;;;;;;;1.30;1.20;;;;;;;13.20;48.82;97129.45;105342;1256;76472;-39
2024/01/19 07:39:00;;;;;;;1.50;1.40;;;;;;;13.21;48.79;97138.53;105528;1254;67076;-39
2024/01/19 07:41:26;;;;;;;1.50;1.30;;;;;;;13.22;48.89;97153.01;105504;1254;72615;-38
2024/01/19 07:43:54;;;;;;;2.00;1.40;;;;;;;13.22;48.87;97161.11;105635;1257;62074;-38
2024/01/19 07:46:21;;;;;;;1.40;1.20;;;;;;;13.22;48.85;97169.02;105612;1253;62133;-39
2024/01/19 07:48:47;;;;;;;1.50;1.40;;;;;;;13.23;48.76;97176.04;105499;1254;76261;-38
2024/01/19 07:51:48;;;;;;;1.40;1.30;;;;;;;13.23;48.68;97178.35;105518;1253;65466;-38
2024/01/19 07:54:46;;;;;;;1.40;1.30;;;;;;;13.24;48.70;97181.52;105627;1253;73370;-38
2024/01/19 07:57:13;;;;;;;1.30;1.20;;;;;;;13.25;48.78;97186.08;105495;1257;62037;-38
2024/01/19 08:00:13;;;;;;;1.60;1.40;;;;;;;13.25;48.66;97184.56;105459;1254;62594;-38
2024/01/19 08:08:16;;;;;;;1.30;1.20;;;;;;;13.25;48.72;97206.93;105592;1254;69748;-37
2024/01/19 08:10:43;;;;;;;2.00;1.30;;;;;;;13.25;48.84;97214.61;105543;1254;73720;-38
2024/01/19 08:13:10;;;;;;;1.70;1.40;;;;;;;13.25;48.83;97223.91;105682;1254;62027;-38
2024/01/19 08:15:36;;;;;;;1.60;1.40;;;;;;;13.26;48.84;97225.62;105537;1255;62177;-40
2024/01/19 08:18:39;;;;;;;1.70;1.40;;;;;;;13.26;48.91;97233.61;105827;1257;76444;-37
2024/01/19 08:21:16;;;;;;;1.60;1.50;;;;;;;13.26;48.81;97233.23;105511;1254;68509;-38
2024/01/19 08:24:15;;;;;;;1.80;1.60;;;;;;;13.26;48.82;97236.08;105492;1253;73552;-39
2024/01/19 08:27:14;;;;;;;1.90;1.70;;;;;;;13.27;48.93;97242.79;105603;1253;62079;-40
2024/01/19 08:29:41;;;;;;;2.30;1.70;;;;;;;13.27;49.10;97244.18;105614;1253;62053;-39
2024/01/19 08:32:08;;;;;;;1.80;1.60;;;;;;;13.29;49.15;97243.80;105669;1253;76418;-39
2024/01/19 08:35:39;;;;;;;2.30;1.90;;;;;;;13.30;49.27;97243.23;105593;1258;62067;-39
2024/01/19 08:43:12;;;;;;;1.90;1.70;;;;;;;13.31;49.39;97256.65;105339;1256;62067;-38
2024/01/19 08:45:42;;;;;;;1.70;1.60;;;;;;;13.32;49.39;97259.44;105483;1256;62096;-41
2024/01/19 08:48:09;;;;;;;2.10;1.70;;;;;;;13.33;49.59;97265.56;105480;1259;76028;-38
2024/01/19 08:51:09;;;;;;;2.70;1.70;;;;;;;13.34;49.67;97273.60;105609;1257;67069;-40
2024/01/19 08:59:17;;;;;;;2.50;1.80;;;;;;;13.38;49.65;97297.09;105330;1256;62441;-39
2024/01/19 09:01:47;;;;;;;2.60;2.10;;;;;;;13.38;49.65;97306.55;105847;1253;62074;-39
2024/01/19 09:04:14;;;;;;;2.30;1.90;;;;;;;13.38;49.65;97308.73;106157;1254;76115;-39
2024/01/19 09:06:41;;;;;;;2.70;2.10;;;;;;;13.40;49.67;97308.72;105437;1256;65781;-39
2024/01/19 09:09:12;;;;;;;2.60;2.10;;;;;;;13.41;49.54;97312.77;105910;1254;72504;-38
2024/01/19 09:11:39;;;;;;;2.10;1.90;;;;;;;13.42;49.57;97313.12;105654;1257;61972;-37
2024/01/19 09:19:44;;;;;;;2.30;2.00;;;;;;;13.43;49.33;97319.66;105454;1254;74278;-39
2024/01/19 09:22:11;;;;;;;2.20;2.00;;;;;;;13.43;49.26;97321.05;105584;1254;66724;-40
2024/01/19 09:24:38;;;;;;;2.40;2.10;;;;;;;13.43;49.34;97323.61;105511;1254;72561;-39
2024/01/19 09:27:13;;;;;;;2.80;2.40;;;;;;;13.44;49.15;97329.09;105567;1256;62048;-39
2024/01/19 09:30:16;;;;;;;2.20;2.00;;;;;;;13.45;49.14;97327.88;105572;1254;62153;-39
2024/01/19 09:32:42;;;;;;;2.50;2.20;;;;;;;13.45;49.19;97329.45;105733;1256;76487;-39
2024/01/19 09:35:09;;;;;;;2.40;2.20;;;;;;;13.45;49.23;97326.83;105717;1256;66422;-39
2024/01/19 09:37:36;;;;;;;3.00;2.40;;;;;;;13.46;49.02;97331.64;105428;1256;73499;-39
2024/01/19 09:40:03;;;;;;;2.40;2.20;;;;;;;13.47;48.98;97332.04;105677;1258;62037;-39
2024/01/19 09:42:33;;;;;;;2.50;2.20;;;;;;;13.48;48.99;97333.34;105566;1253;62655;-37
2024/01/19 09:45:04;;;;;;;3.10;2.20;;;;;;;13.48;49.00;97331.56;105685;1253;76134;-39
2024/01/19 09:48:00;;;;;;;2.10;1.90;;;;;;;13.48;48.97;97327.27;105603;1258;66334;-39
2024/01/19 09:50:29;;;;;;;;;;;;;;;13.49;48.96;97325.67;105665;1254;73641;-39
2024/01/19 09:52:58;;;;;;;3.20;2.40;;;;;;;13.49;48.89;97325.20;105578;1256;61966;-39
2024/01/19 09:55:27;;;;;;;2.30;1.90;;;;;;;13.48;48.94;97319.80;105671;1253;61968;-37
2024/01/19 09:57:55;;;;;;;2.90;2.10;;;;;;;13.48;48.94;97314.56;105568;1253;75116;-38
2024/01/19 10:00:23;;;;;;;2.30;2.10;;;;;;;13.48;48.94;97309.35;105574;1257;64978;-38
2024/01/19 10:03:54;;;;;;;2.90;2.00;;;;;;;13.49;48.82;97303.63;105478;1256;72695;-39
2024/01/19 10:07:26;;;;;;;2.30;1.80;;;;;;;13.49;48.78;97297.33;105271;1256;62106;-40
2024/01/19 10:09:53;;;;;;;2.40;1.80;;;;;;;13.49;48.73;97294.70;105292;1256;62042;-40
2024/01/19 10:12:20;;;;;;;1.90;1.80;;;;;;;13.49;48.78;97300.23;105214;1261;74999;-38
2024/01/19 10:15:52;;;;;;;2.30;2.10;;;;;;;13.49;48.83;97303.09;105509;1256;66914;-41
2024/01/19 10:18:18;;;;;;;3.00;2.20;;;;;;;13.50;48.74;97301.33;105528;1256;73728;-42
2024/01/19 10:20:48;;;;;;;2.20;2.00;;;;;;;13.49;48.82;97298.09;105498;1256;61907;-42
2024/01/19 10:23:19;;;;;;;2.50;2.30;;;;;;;13.49;48.83;97298.55;105653;1259;62076;-41
2024/01/19 10:25:46;;;;;;;3.40;2.30;;;;;;;13.49;48.77;97301.17;105620;1254;76796;-41
2024/01/19 10:28:35;;;;;;;3.30;2.20;;;;;;;13.49;48.87;97298.56;105649;1258;66007;-41
2024/01/19 10:31:21;;;;;;;3.00;2.30;;;;;;;13.49;48.88;97299.95;105696;1256;73671;-38
2024/01/19 10:33:51;;;;;;;3.10;2.30;;;;;;;13.50;49.05;97304.75;105660;1258;62053;-40
2024/01/19 10:36:19;;;;;;;2.90;2.50;;;;;;;13.50;49.08;97302.13;105648;1256;62070;-39
2024/01/19 10:38:46;;;;;;;3.50;2.40;;;;;;;13.50;49.23;97309.05;105663;1260;76255;-40
2024/01/19 10:41:17;;;;;;;2.30;2.00;;;;;;;13.51;49.10;97313.77;105604;1256;65997;-39
2024/01/19 10:43:44;;;;;;;2.90;2.10;;;;;;;13.51;49.15;97315.54;105503;1256;73637;-39
2024/01/19 10:46:26;;;;;;;3.30;2.20;;;;;;;13.51;49.03;97318.00;105342;1256;61936;-40
2024/01/19 10:48:53;;;;;;;2.90;2.20;;;;;;;13.52;48.94;97324.33;105435;1258;61957;-40
2024/01/19 10:51:20;;;;;;;3.10;2.20;;;;;;;13.52;49.00;97326.02;105572;1258;76172;-40
2024/01/19 10:53:48;;;;;;;7.50;2.40;;;;;;;13.52;49.05;97331.32;105644;1256;67315;-40
2024/01/19 10:56:21;;;;;;;2.80;2.20;;;;;;;13.52;49.11;97331.15;105383;1256;72523;-39
2024/01/19 10:58:48;;;;;;;2.90;2.40;;;;;;;13.52;48.98;97335.02;105497;1259;62159;-39
2024/01/19 11:01:16;;;;;;;3.00;2.50;;;;;;;13.52;49.07;97340.09;105618;1258;62151;-41
2024/01/19 11:03:43;;;;;;;2.70;2.10;;;;;;;13.52;49.02;97344.84;105533;1256;76049;-40
2024/01/19 11:06:10;;;;;;;2.70;2.20;;;;;;;13.52;49.01;97348.00;105656;1254;65948;-39
2024/01/19 11:08:37;;;;;;;2.40;2.20;;;;;;;13.51;48.95;97351.80;105499;1256;73512;-41
2024/01/19 11:11:05;;;;;;;3.10;2.40;;;;;;;13.52;48.88;97353.98;105521;1258;62091;-40
2024/01/19 11:13:36;;;;;;;2.80;2.50;;;;;;;13.51;48.90;97357.57;105500;1256;62407;-39
2024/01/19 11:16:06;;;;;;;3.80;2.30;;;;;;;13.50;48.85;97361.02;105357;1254;73934;-39
2024/01/19 11:18:33;;;;;;;2.70;2.30;;;;;;;13.50;48.80;97363.84;106030;1258;67190;-39
2024/01/19 11:21:00;;;;;;;2.40;2.00;;;;;;;13.51;48.87;97365.48;105509;1256;73787;-40
2024/01/19 11:23:26;;;;;;;4.30;2.20;;;;;;;13.50;48.83;97370.39;105627;1259;62490;-40
2024/01/19 11:26:35;;;;;;;3.10;2.70;;;;;;;13.50;48.88;97372.06;105356;1255;62163;-41
2024/01/19 11:29:30;;;;;;;2.40;2.10;;;;;;;13.50;48.77;97374.13;105512;1258;76531;-40
2024/01/19 11:31:58;;;;;;;2.10;1.90;;;;;;;13.49;48.83;97373.27;105477;1256;66051;-40
2024/01/19 11:34:44;;;;;;;3.00;2.50;;;;;;;13.49;48.72;97373.66;105522;1259;73365;-39
2024/01/19 11:37:37;;;;;;;2.40;2.20;;;;;;;13.49;48.72;97382.10;105410;1258;62161;-40
2024/01/19 11:40:05;;;;;;;2.70;2.20;;;;;;;13.49;48.73;97379.16;105281;1256;62151;-40
2024/01/19 11:42:38;;;;;;;2.70;2.20;;;;;;;13.49;48.73;97382.94;105454;1258;75451;-40
2024/01/19 11:45:05;;;;;;;3.30;2.20;;;;;;;13.48;48.72;97387.81;105490;1258;65223;-38
2024/01/19 11:47:37;;;;;;;2.70;2.40;;;;;;;13.48;48.64;97383.21;105369;1256;73456;-40
2024/01/19 11:50:09;;;;;;;2.40;2.20;;;;;;;13.48;48.78;97385.34;105452;1259;62176;-39
2024/01/19 11:52:40;;;;;;;2.60;2.30;;;;;;;13.48;48.71;97384.64;105588;1256;62268;-40
2024/01/19 11:55:25;;;;;;;2.40;2.20;;;;;;;13.47;48.74;97385.71;105551;1254;76253;-41
2024/01/19 11:57:53;;;;;;;2.50;2.20;;;;;;;13.47;48.72;97389.00;105375;1255;68056;-39
2024/01/19 12:00:20;;;;;;;3.20;2.40;;;;;;;13.47;48.62;97390.00;105536;1256;73763;-40
2024/01/19 12:02:46;;;;;;;2.90;2.20;;;;;;;13.47;48.66;97392.77;105582;1259;62084;-40
2024/01/19 12:05:13;;;;;;;2.70;2.40;;;;;;;13.47;48.66;97391.54;105227;1256;62211;-41
2024/01/19 12:07:41;;;;;;;2.90;2.10;;;;;;;13.47;48.71;97388.70;105276;1260;76488;-41
2024/01/19 12:10:12;;;;;;;2.50;2.30;;;;;;;13.48;48.64;97391.63;105438;1258;65991;-40
2024/01/19 12:12:39;;;;;;;3.30;2.50;;;;;;;13.48;48.72;97394.87;105468;1258;73648;-40
2024/01/19 12:15:10;;;;;;;2.60;2.20;;;;;;;13.47;48.65;97395.09;105415;1258;62076;-39
2024/01/19 12:17:40;;;;;;;2.90;2.60;;;;;;;13.47;48.61;97395.46;105457;1256;62077;-40
2024/01/19 12:20:09;;;;;;;2.80;2.30;;;;;;;13.47;48.60;97398.45;105467;1258;75204;-40
2024/01/19 12:22:36;;;;;;;3.40;2.50;;;;;;;13.47;48.60;97398.23;105463;1256;67192;-41
2024/01/19 12:25:16;;;;;;;2.40;2.20;;;;;;;13.47;48.64;97398.60;105328;1257;73667;-40
2024/01/19 12:27:44;;;;;;;2.90;2.60;;;;;;;13.46;48.55;97404.59;105534;1258;62033;-39
2024/01/19 12:30:15;;;;;;;3.70;2.50;;;;;;;13.46;48.58;97407.04;105470;1255;62159;-39
2024/01/19 12:32:43;;;;;;;3.30;2.30;;;;;;;13.46;48.69;97415.80;105361;1254;75094;-41
2024/01/19 12:35:13;;;;;;;2.70;2.40;;;;;;;13.46;48.59;97417.03;105391;1258;67313;-39
2024/01/19 12:37:39;;;;;;;2.50;2.30;;;;;;;13.45;48.59;97420.83;105481;1258;72937;-39
2024/01/19 12:40:17;;;;;;;2.60;2.00;;;;;;;13.45;48.57;97421.96;105445;1258;62156;-39
2024/01/19 12:42:44;;;;;;;3.00;2.20;;;;;;;13.44;48.53;97428.77;105591;1257;62158;-40
2024/01/19 12:45:11;;;;;;;2.90;2.30;;;;;;;13.43;48.56;97424.60;105428;1255;76555;-40
2024/01/19 12:47:45;;;;;;;2.60;2.40;;;;;;;13.43;48.59;97430.97;105600;1258;65972;-41
2024/01/19 12:50:14;;;;;;;2.60;2.40;;;;;;;13.43;48.68;97427.48;105346;1258;72103;-41
2024/01/19 12:52:50;;;;;;;;;;;;;;;13.41;48.62;97420.22;105337;1258;62078;-41
2024/01/19 12:55:31;;;;;;;2.70;2.30;;;;;;;13.40;48.57;97425.68;105425;1254;62362;-41
2024/01/19 12:57:59;;;;;;;2.80;2.50;;;;;;;13.38;48.65;97430.53;105427;1258;75453;-41
2024/01/19 13:00:26;;;;;;;2.90;2.60;;;;;;;13.38;48.65;97431.83;105319;1256;66552;-41
2024/01/19 13:02:58;;;;;;;2.50;2.30;;;;;;;13.37;48.58;97425.64;105593;1254;73288;-39
2024/01/19 13:05:29;;;;;;;3.60;2.50;;;;;;;13.37;48.55;97435.55;105617;1255;61982;-39
2024/01/19 13:08:00;;;;;;;3.00;2.60;;;;;;;13.35;48.69;97443.02;105579;1257;62515;-40
2024/01/19 13:10:27;;;;;;;3.00;2.70;;;;;;;13.34;48.56;97439.45;105433;1254;76211;-41
2024/01/19 13:13:08;;;;;;;3.20;2.70;;;;;;;13.34;48.65;97440.42;105403;1258;67178;-40
2024/01/19 13:15:35;;;;;;;3.20;2.60;;;;;;;13.34;48.66;97443.72;105302;1258;72641;-40
2024/01/19 13:18:22;;;;;;;2.80;2.50;;;;;;;13.33;48.66;97444.66;105348;1258;182497;-40
2024/01/19 13:20:49;;;;;;;3.00;2.60;;;;;;;13.32;48.62;97447.96;105543;1256;62138;-40
2024/01/19 13:23:17;;;;;;;3.00;2.70;;;;;;;13.32;48.74;97452.92;105523;1258;75781;-39
2024/01/19 13:25:51;;;;;;;2.90;2.50;;;;;;;13.32;48.65;97460.11;105530;1259;66913;-41
2024/01/19 13:28:18;;;;;;;3.70;2.80;;;;;;;13.32;48.61;97465.45;105636;1256;73573;-40
2024/01/19 13:30:47;;;;;;;3.20;2.60;;;;;;;13.31;48.76;97469.19;105335;1259;62029;-40
2024/01/19 13:33:14;;;;;;;3.00;2.50;;;;;;;13.31;48.66;97468.27;105398;1260;62158;-40
2024/01/19 13:35:41;;;;;;;3.00;2.70;;;;;;;13.31;48.74;97466.72;105373;1258;76363;-40
2024/01/19 13:38:08;;;;;;;4.20;2.50;;;;;;;13.31;48.73;97476.40;105523;1257;65980;-40
2024/01/19 13:40:35;;;;;;;2.80;2.50;;;;;;;13.30;48.75;97480.30;105606;1258;73237;-40
2024/01/19 13:43:02;;;;;;;2.90;2.60;;;;;;;13.30;48.76;97490.65;105467;1258;62403;-40
2024/01/19 13:45:28;;;;;;;2.60;2.30;;;;;;;13.30;48.66;97497.27;105440;1257;62184;-40
2024/01/19 13:47:55;;;;;;;4.10;2.60;;;;;;;13.30;48.74;97498.73;105629;1258;76207;-40
2024/01/19 13:50:22;;;;;;;2.90;2.60;;;;;;;13.29;48.78;97504.59;105269;1256;65908;-40
2024/01/19 13:52:49;;;;;;;3.30;2.70;;;;;;;13.29;48.58;97504.66;105349;1256;73523;-40
2024/01/19 13:55:16;;;;;;;4.10;2.70;;;;;;;13.28;48.76;97507.42;105451;1258;62053;-40
2024/01/19 13:57:42;;;;;;;3.00;2.50;;;;;;;13.28;48.78;97507.71;105613;1258;62071;-40
2024/01/19 14:00:09;;;;;;;3.00;2.70;;;;;;;13.28;48.61;97504.77;105312;1258;76211;-40
2024/01/19 14:02:36;;;;;;;3.20;2.70;;;;;;;13.27;48.69;97507.58;105390;1259;66531;-40
2024/01/19 14:05:04;;;;;;;3.40;2.60;;;;;;;13.26;48.71;97518.67;105338;1258;74417;-42
2024/01/19 14:07:31;;;;;;;3.40;2.70;;;;;;;13.26;48.66;97518.06;105473;1254;62158;-41
2024/01/19 14:09:58;;;;;;;3.10;2.80;;;;;;;13.24;48.78;97515.61;105297;1259;62118;-41
2024/01/19 14:12:24;;;;;;;3.60;2.70;;;;;;;13.25;48.80;97523.83;105301;1259;75378;-40
2024/01/19 14:14:51;;;;;;;3.00;2.70;;;;;;;13.24;48.68;97522.58;105275;1259;67188;-41
2024/01/19 14:17:18;;;;;;;2.90;2.60;;;;;;;13.23;48.78;97528.91;105490;1258;73717;-42
2024/01/19 14:19:44;;;;;;;3.70;2.80;;;;;;;13.22;48.83;97530.11;105547;1258;62042;-41
2024/01/19 14:22:11;;;;;;;3.90;2.60;;;;;;;13.22;48.73;97524.48;105682;1254;62042;-41
2024/01/19 14:24:38;;;;;;;3.10;2.80;;;;;;;13.21;48.69;97529.62;105569;1258;76208;-41
2024/01/19 14:27:05;;;;;;;3.50;2.60;;;;;;;13.21;48.75;97532.91;105608;1259;67129;-41
2024/01/19 14:29:32;;;;;;;3.20;2.80;;;;;;;13.20;48.75;97539.06;105592;1258;72378;-42
2024/01/19 14:31:59;;;;;;;3.40;3.00;;;;;;;13.19;48.91;97544.41;105676;1260;62093;-42
2024/01/19 14:34:30;;;;;;;3.20;2.90;;;;;;;13.19;48.72;97551.18;105510;1258;62046;-42
2024/01/19 14:37:09;;;;;;;3.00;2.70;;;;;;;13.18;48.79;97560.52;105613;1258;76202;-42
2024/01/19 14:39:39;;;;;;;2.70;2.50;;;;;;;13.18;48.71;97570.27;105328;1259;66373;-42
2024/01/19 14:42:06;;;;;;;3.70;2.80;;;;;;;13.17;48.73;97573.52;105521;1261;72608;-40
2024/01/19 14:44:32;;;;;;;3.00;2.70;;;;;;;13.17;48.77;97583.10;105404;1258;62157;-40
2024/01/19 14:47:00;;;;;;;3.70;2.90;;;;;;;13.17;48.81;97590.10;105381;1257;62055;-40
2024/01/19 14:49:29;;;;;;;3.20;2.70;;;;;;;13.16;48.76;97593.98;105577;1260;76445;-40
2024/01/19 14:51:56;;;;;;;3.20;2.90;;;;;;;13.15;48.83;97588.80;105736;1261;65426;-40
2024/01/19 14:54:24;;;;;;;3.10;2.80;;;;;;;13.14;48.81;97583.24;105495;1258;73660;-41
2024/01/19 14:56:51;;;;;;;3.10;2.80;;;;;;;13.13;48.81;97586.96;105814;1258;62049;-41
2024/01/19 14:59:18;;;;;;;4.80;2.80;;;;;;;13.13;48.80;97593.17;105405;1257;62075;-41
2024/01/19 15:01:44;;;;;;;3.10;2.80;;;;;;;13.13;48.76;97599.14;105483;1259;76346;-40
2024/01/19 15:04:11;;;;;;;5.30;3.10;;;;;;;13.12;48.93;97606.48;105578;1259;66020;-40
2024/01/19 15:06:39;;;;;;;3.20;2.90;;;;;;;13.11;48.83;97608.91;106030;1258;73737;-40
2024/01/19 15:09:05;;;;;;;2.80;2.60;;;;;;;13.11;48.76;97605.81;105612;1259;62076;-40
2024/01/19 15:11:32;;;;;;;3.50;2.90;;;;;;;13.10;48.89;97606.06;105447;1259;62166;-41
2024/01/19 15:13:59;;;;;;;4.40;2.80;;;;;;;13.09;48.76;97618.56;105439;1259;76417;-41
2024/01/19 15:16:26;;;;;;;3.20;2.90;;;;;;;13.09;48.98;97622.45;105606;1260;65927;-41
2024/01/19 15:18:53;;;;;;;3.50;2.80;;;;;;;13.08;48.93;97630.34;105722;1258;73101;-40
2024/01/19 15:21:20;;;;;;;3.40;2.80;;;;;;;13.07;48.91;97635.47;105606;1261;62060;-40
2024/01/19 15:23:46;;;;;;;2.90;2.50;;;;;;;13.06;49.00;97643.38;105344;1255;62049;-40
2024/01/19 15:26:17;;;;;;;3.30;3.00;;;;;;;13.05;48.87;97643.27;105558;1258;75402;-40
2024/01/19 15:28:44;;;;;;;4.80;2.90;;;;;;;13.05;48.94;97642.95;105637;1257;65033;-40
2024/01/19 15:31:18;;;;;;;2.90;2.70;;;;;;;13.05;48.84;97652.75;105510;1258;73123;-40
2024/01/19 15:33:46;;;;;;;3.90;2.90;;;;;;;13.04;48.95;97658.04;105687;1258;61966;-40
2024/01/19 15:36:13;;;;;;;3.10;2.80;;;;;;;13.03;48.98;97658.70;105441;1255;62148;-41
2024/01/19 15:38:40;;;;;;;3.40;2.90;;;;;;;13.03;48.84;97658.33;105671;1266;75786;-40
2024/01/19 15:41:07;;;;;;;2.60;2.40;;;;;;;13.03;48.85;97663.34;105616;1260;65427;-40
2024/01/19 15:43:35;;;;;;;3.30;3.00;;;;;;;13.02;48.78;97661.55;105592;1255;72981;-40
2024/01/19 15:46:03;;;;;;;2.80;2.50;;;;;;;13.02;49.01;97663.48;105482;1267;62043;-40
2024/01/19 15:48:30;;;;;;;3.00;2.70;;;;;;;13.01;48.78;97671.19;105748;1254;62141;-40
2024/01/19 15:50:57;;;;;;;3.00;2.70;;;;;;;13.01;48.89;97674.41;105512;1258;76082;-40
2024/01/19 15:53:23;;;;;;;3.00;2.70;;;;;;;13.01;48.86;97672.16;105626;1259;65209;-42
2024/01/19 15:55:50;;;;;;;3.20;2.90;;;;;;;13.01;48.87;97670.39;105339;1259;71771;-40
2024/01/19 15:58:17;;;;;;;3.30;3.00;;;;;;;13.01;48.82;97666.33;105542;1259;62514;-45
2024/01/19 16:00:44;;;;;;;3.20;2.80;;;;;;;12.99;48.81;97672.11;105437;1254;62416;-41
2024/01/19 16:03:11;;;;;;;3.30;3.00;;;;;;;12.99;48.86;97679.64;105625;1259;75948;-40
2024/01/19 16:05:38;;;;;;;3.00;2.70;;;;;;;12.99;48.85;97684.43;105552;1259;67408;-40
2024/01/19 16:08:05;;;;;;;3.00;2.70;;;;;;;12.98;48.97;97687.11;105472;1259;73116;-40
2024/01/19 16:10:32;;;;;;;4.10;3.00;;;;;;;12.99;48.86;97689.11;105365;1260;62634;-40
2024/01/19 16:12:59;;;;;;;3.80;3.00;;;;;;;12.98;48.83;97695.78;105398;1256;62139;-41
2024/01/19 16:15:26;;;;;;;4.10;2.90;;;;;;;12.98;48.88;97696.92;105508;1258;76218;-40
2024/01/19 16:17:52;;;;;;;3.20;2.70;;;;;;;12.97;48.92;97703.35;105582;1259;66659;-40
2024/01/19 16:20:19;;;;;;;3.50;3.20;;;;;;;12.98;48.94;97710.48;105500;1258;73653;-40
2024/01/19 16:22:46;;;;;;;3.30;3.00;;;;;;;12.97;48.89;97714.86;105494;1259;61980;-40
2024/01/19 16:25:13;;;;;;;3.50;3.00;;;;;;;12.97;48.80;97716.76;105336;1260;62083;-40
2024/01/19 16:27:39;;;;;;;3.10;2.80;;;;;;;12.96;48.81;97716.87;105441;1259;75677;-41
2024/01/19 16:30:06;;;;;;;3.80;3.00;;;;;;;12.96;48.99;97719.46;105488;1261;66180;-40